sensor_id;sensor_type;location;lat;lon;timestamp;P1;durP1;ratioP1;P2;durP2;ratioP2
68763;SDS011;55754;52.038;5.566;2022-10-26T00:00:46;6.80;;;2.13;;
68763;SDS011;55754;52.038;5.566;2022-10-26T00:03:15;6.68;;;2.17;;
68763;SDS011;55754;52.038;5.566;2022-10-26T00:05:41;7.72;;;2.42;;
68763;SDS011;55754;52.038;5.566;2022-10-26T00:08:07;6.63;;;2.20;;
68763;SDS011;55754;52.038;5.566;2022-10-26T00:10:33;10.00;;;2.20;;
68763;SDS011;55754;52.038;5.566;2022-10-26T00:12:59;5.88;;;2.33;;
68763;SDS011;55754;52.038;5.566;2022-10-26T00:15:26;6.13;;;2.42;;
68763;SDS011;55754;52.038;5.566;2022-10-26T00:17:51;5.43;;;2.08;;
68763;SDS011;55754;52.038;5.566;2022-10-26T00:20:17;6.50;;;2.30;;
68763;SDS011;55754;52.038;5.566;2022-10-26T00:22:43;7.33;;;2.13;;
68763;SDS011;55754;52.038;5.566;2022-10-26T00:25:08;6.03;;;1.95;;
68763;SDS011;55754;52.038;5.566;2022-10-26T00:27:34;5.83;;;2.00;;
68763;SDS011;55754;52.038;5.566;2022-10-26T00:30:00;5.90;;;2.28;;
68763;SDS011;55754;52.038;5.566;2022-10-26T00:32:26;5.85;;;2.20;;
68763;SDS011;55754;52.038;5.566;2022-10-26T00:34:52;6.47;;;2.20;;
68763;SDS011;55754;52.038;5.566;2022-10-26T00:37:18;6.47;;;2.05;;
68763;SDS011;55754;52.038;5.566;2022-10-26T00:39:43;5.53;;;1.90;;
68763;SDS011;55754;52.038;5.566;2022-10-26T00:42:13;5.17;;;1.80;;
68763;SDS011;55754;52.038;5.566;2022-10-26T00:47:56;5.50;;;2.00;;
68763;SDS011;55754;52.038;5.566;2022-10-26T00:50:27;6.00;;;2.20;;
68763;SDS011;55754;52.038;5.566;2022-10-26T00:52:57;4.68;;;2.00;;
68763;SDS011;55754;52.038;5.566;2022-10-26T00:55:25;6.70;;;2.20;;
68763;SDS011;55754;52.038;5.566;2022-10-26T00:57:56;7.82;;;2.10;;
68763;SDS011;55754;52.038;5.566;2022-10-26T01:00:22;6.32;;;2.33;;
68763;SDS011;55754;52.038;5.566;2022-10-26T01:02:48;5.10;;;1.87;;
68763;SDS011;55754;52.038;5.566;2022-10-26T01:05:16;5.78;;;2.10;;
68763;SDS011;55754;52.038;5.566;2022-10-26T01:07:43;6.40;;;2.17;;
68763;SDS011;55754;52.038;5.566;2022-10-26T01:10:09;6.53;;;1.90;;
68763;SDS011;55754;52.038;5.566;2022-10-26T01:12:35;6.30;;;2.30;;
68763;SDS011;55754;52.038;5.566;2022-10-26T01:15:01;5.00;;;1.85;;
68763;SDS011;55754;52.038;5.566;2022-10-26T01:23:25;6.83;;;1.80;;
68763;SDS011;55754;52.038;5.566;2022-10-26T01:28:46;7.97;;;2.15;;
68763;SDS011;55754;52.038;5.566;2022-10-26T01:31:27;5.55;;;1.90;;
68763;SDS011;55754;52.038;5.566;2022-10-26T01:34:13;4.80;;;1.75;;
68763;SDS011;55754;52.038;5.566;2022-10-26T01:36:47;5.30;;;2.20;;
68763;SDS011;55754;52.038;5.566;2022-10-26T01:39:24;4.78;;;1.70;;
68763;SDS011;55754;52.038;5.566;2022-10-26T01:41:56;8.90;;;2.10;;
68763;SDS011;55754;52.038;5.566;2022-10-26T01:44:25;6.50;;;1.73;;
68763;SDS011;55754;52.038;5.566;2022-10-26T01:46:56;4.78;;;1.80;;
68763;SDS011;55754;52.038;5.566;2022-10-26T01:49:25;5.13;;;1.90;;
68763;SDS011;55754;52.038;5.566;2022-10-26T01:51:53;5.72;;;1.50;;
68763;SDS011;55754;52.038;5.566;2022-10-26T01:54:19;5.07;;;1.77;;
68763;SDS011;55754;52.038;5.566;2022-10-26T01:56:46;5.93;;;1.87;;
68763;SDS011;55754;52.038;5.566;2022-10-26T02:01:56;7.97;;;1.90;;
68763;SDS011;55754;52.038;5.566;2022-10-26T02:12:12;5.93;;;1.80;;
68763;SDS011;55754;52.038;5.566;2022-10-26T02:15:05;6.40;;;2.13;;
68763;SDS011;55754;52.038;5.566;2022-10-26T02:17:55;5.25;;;2.00;;
68763;SDS011;55754;52.038;5.566;2022-10-26T02:20:41;5.07;;;2.10;;
68763;SDS011;55754;52.038;5.566;2022-10-26T02:23:12;7.05;;;1.90;;
68763;SDS011;55754;52.038;5.566;2022-10-26T02:25:40;8.35;;;2.20;;
68763;SDS011;55754;52.038;5.566;2022-10-26T02:28:12;6.50;;;1.93;;
68763;SDS011;55754;52.038;5.566;2022-10-26T02:30:41;6.60;;;2.05;;
68763;SDS011;55754;52.038;5.566;2022-10-26T02:33:10;8.82;;;2.22;;
68763;SDS011;55754;52.038;5.566;2022-10-26T02:35:37;8.65;;;2.08;;
68763;SDS011;55754;52.038;5.566;2022-10-26T02:38:06;5.75;;;1.92;;
68763;SDS011;55754;52.038;5.566;2022-10-26T02:40:35;5.00;;;1.73;;
68763;SDS011;55754;52.038;5.566;2022-10-26T02:43:05;5.07;;;1.70;;
68763;SDS011;55754;52.038;5.566;2022-10-26T02:45:40;5.15;;;1.92;;
68763;SDS011;55754;52.038;5.566;2022-10-26T02:48:10;6.18;;;1.80;;
68763;SDS011;55754;52.038;5.566;2022-10-26T02:50:43;5.53;;;2.23;;
68763;SDS011;55754;52.038;5.566;2022-10-26T02:53:16;6.88;;;2.00;;
68763;SDS011;55754;52.038;5.566;2022-10-26T02:56:10;6.07;;;2.10;;
68763;SDS011;55754;52.038;5.566;2022-10-26T02:58:59;4.57;;;1.90;;
68763;SDS011;55754;52.038;5.566;2022-10-26T03:01:29;4.88;;;1.73;;
68763;SDS011;55754;52.038;5.566;2022-10-26T03:03:56;7.43;;;2.07;;
68763;SDS011;55754;52.038;5.566;2022-10-26T03:06:22;5.35;;;1.90;;
68763;SDS011;55754;52.038;5.566;2022-10-26T03:08:48;6.43;;;1.90;;
68763;SDS011;55754;52.038;5.566;2022-10-26T03:11:14;7.77;;;1.90;;
68763;SDS011;55754;52.038;5.566;2022-10-26T03:13:40;5.57;;;2.00;;
68763;SDS011;55754;52.038;5.566;2022-10-26T03:16:05;5.43;;;1.80;;
68763;SDS011;55754;52.038;5.566;2022-10-26T03:18:31;4.57;;;1.77;;
68763;SDS011;55754;52.038;5.566;2022-10-26T03:20:56;7.23;;;2.00;;
68763;SDS011;55754;52.038;5.566;2022-10-26T03:23:22;5.23;;;1.70;;
68763;SDS011;55754;52.038;5.566;2022-10-26T03:25:47;5.85;;;2.10;;
68763;SDS011;55754;52.038;5.566;2022-10-26T03:28:16;5.45;;;2.05;;
68763;SDS011;55754;52.038;5.566;2022-10-26T03:30:41;6.47;;;2.10;;
68763;SDS011;55754;52.038;5.566;2022-10-26T03:33:07;5.63;;;1.87;;
68763;SDS011;55754;52.038;5.566;2022-10-26T03:35:33;7.57;;;2.28;;
68763;SDS011;55754;52.038;5.566;2022-10-26T03:37:58;6.13;;;2.03;;
68763;SDS011;55754;52.038;5.566;2022-10-26T03:40:24;6.32;;;2.00;;
68763;SDS011;55754;52.038;5.566;2022-10-26T03:42:49;6.47;;;2.07;;
68763;SDS011;55754;52.038;5.566;2022-10-26T03:45:15;6.10;;;2.03;;
68763;SDS011;55754;52.038;5.566;2022-10-26T03:47:44;7.30;;;2.13;;
68763;SDS011;55754;52.038;5.566;2022-10-26T03:50:11;5.97;;;1.70;;
68763;SDS011;55754;52.038;5.566;2022-10-26T03:52:38;4.80;;;1.70;;
68763;SDS011;55754;52.038;5.566;2022-10-26T03:55:05;7.93;;;2.30;;
68763;SDS011;55754;52.038;5.566;2022-10-26T03:57:31;8.70;;;2.20;;
68763;SDS011;55754;52.038;5.566;2022-10-26T03:59:56;5.33;;;2.03;;
68763;SDS011;55754;52.038;5.566;2022-10-26T04:02:22;6.73;;;2.00;;
68763;SDS011;55754;52.038;5.566;2022-10-26T04:04:48;6.07;;;2.00;;
68763;SDS011;55754;52.038;5.566;2022-10-26T04:07:13;7.13;;;1.97;;
68763;SDS011;55754;52.038;5.566;2022-10-26T04:09:39;4.82;;;1.77;;
68763;SDS011;55754;52.038;5.566;2022-10-26T04:12:04;5.50;;;1.97;;
68763;SDS011;55754;52.038;5.566;2022-10-26T04:14:30;7.10;;;2.03;;
68763;SDS011;55754;52.038;5.566;2022-10-26T04:16:55;6.47;;;1.85;;
68763;SDS011;55754;52.038;5.566;2022-10-26T04:19:21;6.70;;;2.00;;
68763;SDS011;55754;52.038;5.566;2022-10-26T04:21:46;5.70;;;2.00;;
68763;SDS011;55754;52.038;5.566;2022-10-26T04:24:15;6.93;;;1.98;;
68763;SDS011;55754;52.038;5.566;2022-10-26T04:26:40;4.97;;;2.00;;
68763;SDS011;55754;52.038;5.566;2022-10-26T04:29:06;6.77;;;1.93;;
68763;SDS011;55754;52.038;5.566;2022-10-26T04:31:33;4.57;;;1.85;;
68763;SDS011;55754;52.038;5.566;2022-10-26T04:33:58;7.50;;;2.20;;
68763;SDS011;55754;52.038;5.566;2022-10-26T04:36:24;6.20;;;2.00;;
68763;SDS011;55754;52.038;5.566;2022-10-26T04:38:49;5.95;;;1.90;;
68763;SDS011;55754;52.038;5.566;2022-10-26T04:41:15;5.57;;;1.73;;
68763;SDS011;55754;52.038;5.566;2022-10-26T04:43:40;5.37;;;1.80;;
68763;SDS011;55754;52.038;5.566;2022-10-26T04:46:06;6.15;;;2.10;;
68763;SDS011;55754;52.038;5.566;2022-10-26T04:48:31;7.17;;;2.30;;
68763;SDS011;55754;52.038;5.566;2022-10-26T04:51:00;5.47;;;2.10;;
68763;SDS011;55754;52.038;5.566;2022-10-26T04:53:26;6.93;;;2.10;;
68763;SDS011;55754;52.038;5.566;2022-10-26T04:55:58;6.53;;;2.13;;
68763;SDS011;55754;52.038;5.566;2022-10-26T04:58:25;6.20;;;2.00;;
68763;SDS011;55754;52.038;5.566;2022-10-26T05:00:51;7.82;;;2.20;;
68763;SDS011;55754;52.038;5.566;2022-10-26T05:03:17;8.10;;;2.17;;
68763;SDS011;55754;52.038;5.566;2022-10-26T05:05:43;7.35;;;2.17;;
68763;SDS011;55754;52.038;5.566;2022-10-26T05:08:08;5.77;;;2.20;;
68763;SDS011;55754;52.038;5.566;2022-10-26T05:10:34;7.13;;;2.20;;
68763;SDS011;55754;52.038;5.566;2022-10-26T05:13:02;5.93;;;2.23;;
68763;SDS011;55754;52.038;5.566;2022-10-26T05:15:28;5.28;;;2.00;;
68763;SDS011;55754;52.038;5.566;2022-10-26T05:17:55;7.70;;;2.00;;
68763;SDS011;55754;52.038;5.566;2022-10-26T05:20:22;6.30;;;1.90;;
68763;SDS011;55754;52.038;5.566;2022-10-26T05:22:53;7.07;;;2.10;;
68763;SDS011;55754;52.038;5.566;2022-10-26T05:25:19;12.90;;;2.08;;
68763;SDS011;55754;52.038;5.566;2022-10-26T05:27:45;9.77;;;1.90;;
68763;SDS011;55754;52.038;5.566;2022-10-26T05:30:10;7.67;;;1.80;;
68763;SDS011;55754;52.038;5.566;2022-10-26T05:32:36;7.07;;;1.70;;
68763;SDS011;55754;52.038;5.566;2022-10-26T05:35:01;10.17;;;1.77;;
68763;SDS011;55754;52.038;5.566;2022-10-26T05:37:27;6.50;;;1.90;;
68763;SDS011;55754;52.038;5.566;2022-10-26T05:39:53;10.20;;;1.95;;
68763;SDS011;55754;52.038;5.566;2022-10-26T05:42:19;5.60;;;1.80;;
68763;SDS011;55754;52.038;5.566;2022-10-26T05:44:44;5.33;;;1.63;;
68763;SDS011;55754;52.038;5.566;2022-10-26T05:47:10;5.90;;;1.50;;
68763;SDS011;55754;52.038;5.566;2022-10-26T05:49:36;4.70;;;1.60;;
68763;SDS011;55754;52.038;5.566;2022-10-26T05:52:01;5.07;;;1.53;;
68763;SDS011;55754;52.038;5.566;2022-10-26T05:54:27;5.95;;;1.70;;
68763;SDS011;55754;52.038;5.566;2022-10-26T05:56:53;3.93;;;1.50;;
68763;SDS011;55754;52.038;5.566;2022-10-26T05:59:21;4.55;;;1.42;;
68763;SDS011;55754;52.038;5.566;2022-10-26T06:04:46;8.03;;;1.70;;
68763;SDS011;55754;52.038;5.566;2022-10-26T06:07:18;5.40;;;1.70;;
68763;SDS011;55754;52.038;5.566;2022-10-26T06:09:46;7.82;;;1.80;;
68763;SDS011;55754;52.038;5.566;2022-10-26T06:12:13;6.15;;;1.90;;
68763;SDS011;55754;52.038;5.566;2022-10-26T06:14:39;6.43;;;2.10;;
68763;SDS011;55754;52.038;5.566;2022-10-26T06:17:17;5.77;;;1.80;;
68763;SDS011;55754;52.038;5.566;2022-10-26T06:19:54;5.15;;;1.80;;
68763;SDS011;55754;52.038;5.566;2022-10-26T06:25:27;6.18;;;1.70;;
68763;SDS011;55754;52.038;5.566;2022-10-26T06:28:23;4.07;;;1.43;;
68763;SDS011;55754;52.038;5.566;2022-10-26T06:31:01;6.07;;;1.80;;
68763;SDS011;55754;52.038;5.566;2022-10-26T06:33:27;7.35;;;1.90;;
68763;SDS011;55754;52.038;5.566;2022-10-26T06:38:49;8.37;;;2.20;;
68763;SDS011;55754;52.038;5.566;2022-10-26T06:41:20;7.43;;;1.90;;
68763;SDS011;55754;52.038;5.566;2022-10-26T06:43:47;6.93;;;1.90;;
68763;SDS011;55754;52.038;5.566;2022-10-26T06:46:34;7.35;;;2.20;;
68763;SDS011;55754;52.038;5.566;2022-10-26T06:49:07;6.25;;;1.90;;
68763;SDS011;55754;52.038;5.566;2022-10-26T06:57:16;6.82;;;2.10;;
68763;SDS011;55754;52.038;5.566;2022-10-26T06:59:50;5.78;;;1.85;;
68763;SDS011;55754;52.038;5.566;2022-10-26T07:02:21;6.57;;;1.95;;
68763;SDS011;55754;52.038;5.566;2022-10-26T07:04:47;6.03;;;1.70;;
68763;SDS011;55754;52.038;5.566;2022-10-26T07:07:34;6.85;;;1.88;;
68763;SDS011;55754;52.038;5.566;2022-10-26T07:09:59;7.38;;;1.85;;
68763;SDS011;55754;52.038;5.566;2022-10-26T07:12:25;5.57;;;1.90;;
68763;SDS011;55754;52.038;5.566;2022-10-26T07:15:00;6.57;;;2.00;;
68763;SDS011;55754;52.038;5.566;2022-10-26T07:17:25;9.00;;;2.20;;
68763;SDS011;55754;52.038;5.566;2022-10-26T07:19:52;10.50;;;2.25;;
68763;SDS011;55754;52.038;5.566;2022-10-26T07:22:18;7.50;;;2.30;;
68763;SDS011;55754;52.038;5.566;2022-10-26T07:24:44;7.95;;;2.30;;
68763;SDS011;55754;52.038;5.566;2022-10-26T07:27:14;14.27;;;2.78;;
68763;SDS011;55754;52.038;5.566;2022-10-26T07:29:39;8.73;;;2.20;;
68763;SDS011;55754;52.038;5.566;2022-10-26T07:32:05;18.50;;;2.50;;
68763;SDS011;55754;52.038;5.566;2022-10-26T07:34:31;9.52;;;2.08;;
68763;SDS011;55754;52.038;5.566;2022-10-26T07:36:58;8.43;;;2.20;;
68763;SDS011;55754;52.038;5.566;2022-10-26T07:39:26;6.90;;;1.95;;
68763;SDS011;55754;52.038;5.566;2022-10-26T07:41:51;7.38;;;2.00;;
68763;SDS011;55754;52.038;5.566;2022-10-26T07:44:17;6.33;;;2.03;;
68763;SDS011;55754;52.038;5.566;2022-10-26T07:46:43;7.85;;;1.92;;
68763;SDS011;55754;52.038;5.566;2022-10-26T07:49:09;7.20;;;2.00;;
68763;SDS011;55754;52.038;5.566;2022-10-26T07:51:35;7.97;;;2.15;;
68763;SDS011;55754;52.038;5.566;2022-10-26T07:54:00;7.83;;;1.87;;
68763;SDS011;55754;52.038;5.566;2022-10-26T07:56:26;5.13;;;1.80;;
68763;SDS011;55754;52.038;5.566;2022-10-26T07:58:52;6.38;;;1.90;;
68763;SDS011;55754;52.038;5.566;2022-10-26T08:01:18;6.57;;;1.80;;
68763;SDS011;55754;52.038;5.566;2022-10-26T08:03:44;6.32;;;1.90;;
68763;SDS011;55754;52.038;5.566;2022-10-26T08:06:10;7.00;;;1.93;;
68763;SDS011;55754;52.038;5.566;2022-10-26T08:08:35;6.57;;;1.80;;
68763;SDS011;55754;52.038;5.566;2022-10-26T08:11:01;8.23;;;2.08;;
68763;SDS011;55754;52.038;5.566;2022-10-26T08:13:28;5.80;;;1.93;;
68763;SDS011;55754;52.038;5.566;2022-10-26T08:15:57;5.70;;;1.80;;
68763;SDS011;55754;52.038;5.566;2022-10-26T08:18:23;6.53;;;2.00;;
68763;SDS011;55754;52.038;5.566;2022-10-26T08:20:49;7.60;;;1.90;;
68763;SDS011;55754;52.038;5.566;2022-10-26T08:23:14;6.55;;;2.00;;
68763;SDS011;55754;52.038;5.566;2022-10-26T08:25:40;6.30;;;1.63;;
68763;SDS011;55754;52.038;5.566;2022-10-26T08:28:06;7.47;;;2.00;;
68763;SDS011;55754;52.038;5.566;2022-10-26T08:30:31;7.32;;;2.00;;
68763;SDS011;55754;52.038;5.566;2022-10-26T08:33:00;6.50;;;1.93;;
68763;SDS011;55754;52.038;5.566;2022-10-26T08:35:27;6.45;;;2.00;;
68763;SDS011;55754;52.038;5.566;2022-10-26T08:37:53;6.65;;;1.90;;
68763;SDS011;55754;52.038;5.566;2022-10-26T08:40:21;5.90;;;2.00;;
68763;SDS011;55754;52.038;5.566;2022-10-26T08:42:52;5.28;;;1.90;;
68763;SDS011;55754;52.038;5.566;2022-10-26T08:45:31;5.50;;;1.85;;
68763;SDS011;55754;52.038;5.566;2022-10-26T08:48:09;7.03;;;2.10;;
68763;SDS011;55754;52.038;5.566;2022-10-26T08:50:40;5.95;;;1.80;;
68763;SDS011;55754;52.038;5.566;2022-10-26T08:58:40;8.82;;;1.60;;
68763;SDS011;55754;52.038;5.566;2022-10-26T09:01:14;6.00;;;1.60;;
68763;SDS011;55754;52.038;5.566;2022-10-26T09:03:39;7.70;;;1.70;;
68763;SDS011;55754;52.038;5.566;2022-10-26T09:09:03;6.30;;;1.80;;
68763;SDS011;55754;52.038;5.566;2022-10-26T09:14:19;7.88;;;1.90;;
68763;SDS011;55754;52.038;5.566;2022-10-26T09:17:10;5.93;;;1.90;;
68763;SDS011;55754;52.038;5.566;2022-10-26T09:19:58;6.13;;;1.95;;
68763;SDS011;55754;52.038;5.566;2022-10-26T09:25:28;5.17;;;1.80;;
68763;SDS011;55754;52.038;5.566;2022-10-26T09:28:04;6.28;;;1.88;;
68763;SDS011;55754;52.038;5.566;2022-10-26T09:30:42;6.22;;;1.80;;
68763;SDS011;55754;52.038;5.566;2022-10-26T09:33:16;6.15;;;1.90;;
68763;SDS011;55754;52.038;5.566;2022-10-26T09:35:54;6.45;;;1.90;;
68763;SDS011;55754;52.038;5.566;2022-10-26T09:43:27;6.28;;;1.92;;
68763;SDS011;55754;52.038;5.566;2022-10-26T09:46:04;9.95;;;2.10;;
68763;SDS011;55754;52.038;5.566;2022-10-26T09:48:40;8.63;;;2.23;;
68763;SDS011;55754;52.038;5.566;2022-10-26T09:51:10;6.65;;;1.90;;
68763;SDS011;55754;52.038;5.566;2022-10-26T09:53:36;8.13;;;2.30;;
68763;SDS011;55754;52.038;5.566;2022-10-26T09:56:06;6.93;;;2.07;;
68763;SDS011;55754;52.038;5.566;2022-10-26T09:58:47;7.03;;;1.98;;
68763;SDS011;55754;52.038;5.566;2022-10-26T10:01:32;7.13;;;2.00;;
68763;SDS011;55754;52.038;5.566;2022-10-26T10:09:27;7.20;;;2.60;;
68763;SDS011;55754;52.038;5.566;2022-10-26T10:11:54;7.53;;;2.75;;
68763;SDS011;55754;52.038;5.566;2022-10-26T10:14:32;15.10;;;4.53;;
68763;SDS011;55754;52.038;5.566;2022-10-26T10:17:03;14.57;;;5.20;;
68763;SDS011;55754;52.038;5.566;2022-10-26T10:19:35;13.13;;;5.00;;
68763;SDS011;55754;52.038;5.566;2022-10-26T10:22:17;12.65;;;4.10;;
68763;SDS011;55754;52.038;5.566;2022-10-26T10:24:53;11.38;;;3.13;;
68763;SDS011;55754;52.038;5.566;2022-10-26T10:27:24;8.38;;;3.10;;
68763;SDS011;55754;52.038;5.566;2022-10-26T10:29:51;7.03;;;2.50;;
68763;SDS011;55754;52.038;5.566;2022-10-26T10:34:50;9.30;;;2.50;;
68763;SDS011;55754;52.038;5.566;2022-10-26T10:37:25;7.72;;;2.35;;
68763;SDS011;55754;52.038;5.566;2022-10-26T10:39:55;7.82;;;2.15;;
68763;SDS011;55754;52.038;5.566;2022-10-26T10:42:41;8.27;;;2.20;;
68763;SDS011;55754;52.038;5.566;2022-10-26T10:45:21;8.82;;;2.15;;
68763;SDS011;55754;52.038;5.566;2022-10-26T10:48:04;7.68;;;2.15;;
68763;SDS011;55754;52.038;5.566;2022-10-26T10:50:38;5.70;;;2.05;;
68763;SDS011;55754;52.038;5.566;2022-10-26T10:55:45;5.87;;;2.20;;
68763;SDS011;55754;52.038;5.566;2022-10-26T10:58:23;7.18;;;1.80;;
68763;SDS011;55754;52.038;5.566;2022-10-26T11:00:59;6.60;;;2.00;;
68763;SDS011;55754;52.038;5.566;2022-10-26T11:06:21;7.90;;;1.95;;
68763;SDS011;55754;52.038;5.566;2022-10-26T11:09:00;8.52;;;2.25;;
68763;SDS011;55754;52.038;5.566;2022-10-26T11:11:27;9.20;;;2.00;;
68763;SDS011;55754;52.038;5.566;2022-10-26T11:16:38;8.77;;;2.00;;
68763;SDS011;55754;52.038;5.566;2022-10-26T11:19:15;6.97;;;2.00;;
68763;SDS011;55754;52.038;5.566;2022-10-26T11:21:52;8.55;;;1.90;;
68763;SDS011;55754;52.038;5.566;2022-10-26T11:24:23;6.60;;;1.92;;
68763;SDS011;55754;52.038;5.566;2022-10-26T11:27:02;6.43;;;1.95;;
68763;SDS011;55754;52.038;5.566;2022-10-26T11:29:46;7.47;;;2.00;;
68763;SDS011;55754;52.038;5.566;2022-10-26T11:32:31;6.72;;;2.03;;
68763;SDS011;55754;52.038;5.566;2022-10-26T11:38:00;11.80;;;2.38;;
68763;SDS011;55754;52.038;5.566;2022-10-26T11:40:51;6.35;;;2.30;;
68763;SDS011;55754;52.038;5.566;2022-10-26T11:43:38;10.43;;;2.40;;
68763;SDS011;55754;52.038;5.566;2022-10-26T11:46:16;14.00;;;2.40;;
68763;SDS011;55754;52.038;5.566;2022-10-26T11:49:05;11.07;;;2.38;;
68763;SDS011;55754;52.038;5.566;2022-10-26T11:51:37;10.18;;;2.30;;
68763;SDS011;55754;52.038;5.566;2022-10-26T11:54:26;9.13;;;2.30;;
68763;SDS011;55754;52.038;5.566;2022-10-26T11:56:57;7.73;;;2.37;;
68763;SDS011;55754;52.038;5.566;2022-10-26T11:59:24;8.57;;;2.50;;
68763;SDS011;55754;52.038;5.566;2022-10-26T12:01:57;11.30;;;2.35;;
68763;SDS011;55754;52.038;5.566;2022-10-26T12:04:46;9.63;;;2.30;;
68763;SDS011;55754;52.038;5.566;2022-10-26T12:07:35;12.02;;;2.40;;
68763;SDS011;55754;52.038;5.566;2022-10-26T12:10:05;9.33;;;2.00;;
68763;SDS011;55754;52.038;5.566;2022-10-26T12:12:45;8.05;;;2.20;;
68763;SDS011;55754;52.038;5.566;2022-10-26T12:15:23;7.50;;;2.30;;
68763;SDS011;55754;52.038;5.566;2022-10-26T12:18:10;10.25;;;2.40;;
68763;SDS011;55754;52.038;5.566;2022-10-26T12:20:54;9.48;;;2.40;;
68763;SDS011;55754;52.038;5.566;2022-10-26T12:23:28;8.00;;;2.20;;
68763;SDS011;55754;52.038;5.566;2022-10-26T12:34:01;8.35;;;2.50;;
68763;SDS011;55754;52.038;5.566;2022-10-26T12:39:25;9.68;;;2.40;;
68763;SDS011;55754;52.038;5.566;2022-10-26T12:41:54;6.43;;;2.50;;
68763;SDS011;55754;52.038;5.566;2022-10-26T12:47:04;6.63;;;2.40;;
68763;SDS011;55754;52.038;5.566;2022-10-26T13:03:29;8.57;;;2.10;;
68763;SDS011;55754;52.038;5.566;2022-10-26T13:08:28;8.10;;;2.35;;
68763;SDS011;55754;52.038;5.566;2022-10-26T13:11:12;8.90;;;2.00;;
68763;SDS011;55754;52.038;5.566;2022-10-26T13:13:41;6.75;;;1.92;;
68763;SDS011;55754;52.038;5.566;2022-10-26T13:16:10;8.48;;;2.10;;
68763;SDS011;55754;52.038;5.566;2022-10-26T13:18:41;10.82;;;1.98;;
68763;SDS011;55754;52.038;5.566;2022-10-26T13:21:09;6.80;;;2.07;;
68763;SDS011;55754;52.038;5.566;2022-10-26T13:23:39;6.00;;;1.92;;
68763;SDS011;55754;52.038;5.566;2022-10-26T13:26:10;4.80;;;1.90;;
68763;SDS011;55754;52.038;5.566;2022-10-26T13:28:43;4.97;;;2.08;;
68763;SDS011;55754;52.038;5.566;2022-10-26T13:34:15;6.57;;;1.87;;
68763;SDS011;55754;52.038;5.566;2022-10-26T13:36:44;5.40;;;1.98;;
68763;SDS011;55754;52.038;5.566;2022-10-26T13:39:16;5.45;;;1.98;;
68763;SDS011;55754;52.038;5.566;2022-10-26T13:41:48;5.93;;;1.90;;
68763;SDS011;55754;52.038;5.566;2022-10-26T13:47:13;5.43;;;2.00;;
68763;SDS011;55754;52.038;5.566;2022-10-26T13:49:46;6.05;;;1.90;;
68763;SDS011;55754;52.038;5.566;2022-10-26T13:52:15;5.05;;;1.88;;
68763;SDS011;55754;52.038;5.566;2022-10-26T13:54:48;6.00;;;1.90;;
68763;SDS011;55754;52.038;5.566;2022-10-26T13:57:39;5.07;;;1.83;;
68763;SDS011;55754;52.038;5.566;2022-10-26T14:00:08;4.40;;;1.70;;
68763;SDS011;55754;52.038;5.566;2022-10-26T14:02:47;4.50;;;1.83;;
68763;SDS011;55754;52.038;5.566;2022-10-26T14:05:14;6.25;;;1.90;;
68763;SDS011;55754;52.038;5.566;2022-10-26T14:07:48;5.88;;;2.00;;
68763;SDS011;55754;52.038;5.566;2022-10-26T14:10:37;6.78;;;1.98;;
68763;SDS011;55754;52.038;5.566;2022-10-26T14:13:06;6.93;;;1.80;;
68763;SDS011;55754;52.038;5.566;2022-10-26T14:15:33;5.07;;;1.70;;
68763;SDS011;55754;52.038;5.566;2022-10-26T14:18:00;6.18;;;2.13;;
68763;SDS011;55754;52.038;5.566;2022-10-26T14:20:27;5.28;;;1.90;;
68763;SDS011;55754;52.038;5.566;2022-10-26T14:22:55;4.93;;;1.90;;
68763;SDS011;55754;52.038;5.566;2022-10-26T14:25:22;4.93;;;1.77;;
68763;SDS011;55754;52.038;5.566;2022-10-26T14:27:50;6.28;;;1.90;;
68763;SDS011;55754;52.038;5.566;2022-10-26T14:30:29;4.35;;;1.83;;
68763;SDS011;55754;52.038;5.566;2022-10-26T14:32:57;6.18;;;2.00;;
68763;SDS011;55754;52.038;5.566;2022-10-26T14:35:27;5.30;;;1.80;;
68763;SDS011;55754;52.038;5.566;2022-10-26T14:38:04;6.07;;;1.83;;
68763;SDS011;55754;52.038;5.566;2022-10-26T14:40:39;4.90;;;1.92;;
68763;SDS011;55754;52.038;5.566;2022-10-26T14:43:05;5.57;;;1.80;;
68763;SDS011;55754;52.038;5.566;2022-10-26T14:45:32;4.40;;;1.70;;
68763;SDS011;55754;52.038;5.566;2022-10-26T14:48:00;5.27;;;1.80;;
68763;SDS011;55754;52.038;5.566;2022-10-26T14:50:27;4.22;;;1.70;;
68763;SDS011;55754;52.038;5.566;2022-10-26T14:53:00;5.72;;;1.80;;
68763;SDS011;55754;52.038;5.566;2022-10-26T14:55:28;4.13;;;1.70;;
68763;SDS011;55754;52.038;5.566;2022-10-26T14:58:05;5.18;;;1.80;;
68763;SDS011;55754;52.038;5.566;2022-10-26T15:00:39;5.23;;;1.80;;
68763;SDS011;55754;52.038;5.566;2022-10-26T15:03:06;6.88;;;1.90;;
68763;SDS011;55754;52.038;5.566;2022-10-26T15:05:38;6.43;;;1.80;;
68763;SDS011;55754;52.038;5.566;2022-10-26T15:08:03;5.80;;;1.80;;
68763;SDS011;55754;52.038;5.566;2022-10-26T15:11:07;5.72;;;1.90;;
68763;SDS011;55754;52.038;5.566;2022-10-26T15:13:33;5.65;;;1.80;;
68763;SDS011;55754;52.038;5.566;2022-10-26T15:16:14;7.18;;;1.80;;
68763;SDS011;55754;52.038;5.566;2022-10-26T15:18:45;10.73;;;2.00;;
68763;SDS011;55754;52.038;5.566;2022-10-26T15:21:23;9.52;;;1.60;;
68763;SDS011;55754;52.038;5.566;2022-10-26T15:23:51;10.63;;;2.00;;
68763;SDS011;55754;52.038;5.566;2022-10-26T15:26:19;8.20;;;1.75;;
68763;SDS011;55754;52.038;5.566;2022-10-26T15:28:45;7.80;;;1.67;;
68763;SDS011;55754;52.038;5.566;2022-10-26T15:38:46;7.72;;;1.90;;
68763;SDS011;55754;52.038;5.566;2022-10-26T15:41:22;8.95;;;1.88;;
68763;SDS011;55754;52.038;5.566;2022-10-26T15:53:20;13.77;;;5.70;;
68763;SDS011;55754;52.038;5.566;2022-10-26T15:55:51;10.65;;;2.30;;
68763;SDS011;55754;52.038;5.566;2022-10-26T15:58:17;7.03;;;2.20;;
68763;SDS011;55754;52.038;5.566;2022-10-26T16:00:43;5.97;;;2.30;;
68763;SDS011;55754;52.038;5.566;2022-10-26T16:03:13;8.88;;;2.28;;
68763;SDS011;55754;52.038;5.566;2022-10-26T16:05:41;9.13;;;2.40;;
68763;SDS011;55754;52.038;5.566;2022-10-26T16:08:14;7.97;;;2.13;;
68763;SDS011;55754;52.038;5.566;2022-10-26T16:10:42;6.60;;;2.10;;
68763;SDS011;55754;52.038;5.566;2022-10-26T16:13:13;8.17;;;2.30;;
68763;SDS011;55754;52.038;5.566;2022-10-26T16:15:40;7.45;;;2.30;;
68763;SDS011;55754;52.038;5.566;2022-10-26T16:18:06;8.18;;;2.15;;
68763;SDS011;55754;52.038;5.566;2022-10-26T16:20:32;6.80;;;2.50;;
68763;SDS011;55754;52.038;5.566;2022-10-26T16:22:57;10.73;;;3.30;;
68763;SDS011;55754;52.038;5.566;2022-10-26T16:25:30;7.20;;;2.85;;
68763;SDS011;55754;52.038;5.566;2022-10-26T16:27:56;12.40;;;2.42;;
68763;SDS011;55754;52.038;5.566;2022-10-26T16:30:21;10.57;;;4.73;;
68763;SDS011;55754;52.038;5.566;2022-10-26T16:32:47;6.18;;;2.20;;
68763;SDS011;55754;52.038;5.566;2022-10-26T16:35:12;8.83;;;2.70;;
68763;SDS011;55754;52.038;5.566;2022-10-26T16:37:38;28.63;;;16.55;;
68763;SDS011;55754;52.038;5.566;2022-10-26T16:40:04;35.73;;;22.43;;
68763;SDS011;55754;52.038;5.566;2022-10-26T16:42:31;31.55;;;17.80;;
68763;SDS011;55754;52.038;5.566;2022-10-26T16:44:56;15.57;;;8.05;;
68763;SDS011;55754;52.038;5.566;2022-10-26T16:47:22;50.93;;;30.83;;
68763;SDS011;55754;52.038;5.566;2022-10-26T16:49:48;24.17;;;14.10;;
68763;SDS011;55754;52.038;5.566;2022-10-26T16:52:13;14.03;;;4.63;;
68763;SDS011;55754;52.038;5.566;2022-10-26T16:54:39;10.20;;;5.03;;
68763;SDS011;55754;52.038;5.566;2022-10-26T16:57:08;11.80;;;5.67;;
68763;SDS011;55754;52.038;5.566;2022-10-26T16:59:33;10.73;;;4.00;;
68763;SDS011;55754;52.038;5.566;2022-10-26T17:01:59;16.43;;;7.60;;
68763;SDS011;55754;52.038;5.566;2022-10-26T17:04:24;19.63;;;9.15;;
68763;SDS011;55754;52.038;5.566;2022-10-26T17:06:50;52.10;;;27.40;;
68763;SDS011;55754;52.038;5.566;2022-10-26T17:09:15;13.47;;;5.70;;
68763;SDS011;55754;52.038;5.566;2022-10-26T17:11:41;62.30;;;29.95;;